createdAt,value
2019-05-14T00:02:22.762Z,46.10
2019-05-14T00:04:55.442Z,46.00
2019-05-14T00:07:26.837Z,46.00
2019-05-14T00:09:57.722Z,46.10
2019-05-14T00:12:28.887Z,46.10
2019-05-14T00:15:02.673Z,46.10
2019-05-14T00:17:33.942Z,46.10
2019-05-14T00:20:10.765Z,46.00
2019-05-14T00:22:42.655Z,46.10
2019-05-14T00:25:13.490Z,46.10
2019-05-14T00:27:47.021Z,46.10
2019-05-14T00:30:19.183Z,46.10
2019-05-14T00:32:52.169Z,46.20
2019-05-14T00:35:23.282Z,46.10
2019-05-14T00:37:55.122Z,46.20
2019-05-14T00:40:27.730Z,46.20
2019-05-14T00:42:58.043Z,46.20
2019-05-14T00:45:31.327Z,46.20
2019-05-14T00:48:04.635Z,46.10
2019-05-14T00:50:36.953Z,46.20
2019-05-14T00:53:07.185Z,46.10
2019-05-14T00:55:38.279Z,46.20
2019-05-14T00:58:11.229Z,46.10
2019-05-14T01:00:42.026Z,46.20
2019-05-14T01:03:15.409Z,46.10
2019-05-14T01:05:48.999Z,46.20
2019-05-14T01:08:22.666Z,46.20
2019-05-14T01:10:53.214Z,46.20
2019-05-14T01:13:23.827Z,46.20
2019-05-14T01:15:55.110Z,46.20
2019-05-14T01:18:25.405Z,46.20
2019-05-14T01:20:57.761Z,46.20
2019-05-14T01:23:28.105Z,46.30
2019-05-14T01:26:02.465Z,46.30
2019-05-14T01:28:33.065Z,46.20
2019-05-14T01:31:07.538Z,46.30
2019-05-14T01:33:37.807Z,46.30
2019-05-14T01:36:09.174Z,46.20
2019-05-14T01:38:42.608Z,46.20
2019-05-14T01:41:13.612Z,46.20
2019-05-14T01:43:43.918Z,46.20
2019-05-14T01:46:14.606Z,46.20
2019-05-14T01:48:44.862Z,46.20
2019-05-14T01:51:16.753Z,46.20
2019-05-14T01:53:47.055Z,46.20
2019-05-14T01:56:21.482Z,46.20
2019-05-14T01:58:52.463Z,46.20
2019-05-14T02:01:31.540Z,46.20
2019-05-14T02:04:08.811Z,46.20
2019-05-14T02:06:41.374Z,46.20
2019-05-14T02:09:12.268Z,46.20
2019-05-14T02:11:42.574Z,46.20
2019-05-14T02:14:13.341Z,46.10
2019-05-14T02:16:46.498Z,46.10
2019-05-14T02:19:17.117Z,46.10
2019-05-14T02:21:47.371Z,46.10
2019-05-14T02:24:18.201Z,46.10
2019-05-14T02:26:48.586Z,46.10
2019-05-14T02:29:22.642Z,46.10
2019-05-14T02:31:52.953Z,46.10
2019-05-14T02:34:24.039Z,46.10
2019-05-14T02:36:54.318Z,46.10
2019-05-14T02:39:25.379Z,46.10
2019-05-14T02:41:58.754Z,46.10
2019-05-14T02:44:30.052Z,46.10
2019-05-14T02:47:00.506Z,46.10
2019-05-14T02:49:34.267Z,46.10
2019-05-14T02:52:10.049Z,46.10
2019-05-14T02:54:40.667Z,46.10
2019-05-14T02:57:13.307Z,46.10
2019-05-14T02:59:45.907Z,46.10
2019-05-14T03:02:20.497Z,46.10
2019-05-14T03:04:51.261Z,46.00
2019-05-14T03:07:21.564Z,46.10
2019-05-14T03:09:52.606Z,46.00
2019-05-14T03:12:25.018Z,46.00
2019-05-14T03:14:58.735Z,46.00
2019-05-14T03:17:30.063Z,46.10
2019-05-14T03:20:00.875Z,46.00
2019-05-14T03:22:43.095Z,46.10
2019-05-14T03:25:06.322Z,46.00
2019-05-14T03:27:40.138Z,46.00
2019-05-14T03:30:12.309Z,46.00
2019-05-14T03:32:43.869Z,46.10
2019-05-14T03:35:24.174Z,46.00
2019-05-14T03:37:50.550Z,46.00
2019-05-14T03:40:21.703Z,46.00
2019-05-14T03:42:59.587Z,46.10
2019-05-14T03:45:30.237Z,46.00
2019-05-14T03:48:01.274Z,46.00
2019-05-14T03:50:32.424Z,46.00
2019-05-14T03:53:03.553Z,46.00
2019-05-14T03:55:34.693Z,46.00
2019-05-14T03:58:05.955Z,45.90
2019-05-14T04:01:00.484Z,46.00
2019-05-14T04:03:32.492Z,46.00
2019-05-14T04:06:15.335Z,46.00
2019-05-14T04:08:49.757Z,46.00
2019-05-14T04:11:29.168Z,46.00
2019-05-14T04:14:01.260Z,46.00
2019-05-14T04:16:34.863Z,46.00
2019-05-14T04:19:09.997Z,46.10
2019-05-14T04:21:41.215Z,46.00
2019-05-14T04:24:14.965Z,46.00
2019-05-14T04:26:58.243Z,46.00
2019-05-14T04:29:20.806Z,46.00
2019-05-14T04:31:54.116Z,46.00
2019-05-14T04:34:29.654Z,46.00
2019-05-14T04:36:59.383Z,46.00
2019-05-14T04:39:32.879Z,46.00
2019-05-14T04:42:09.599Z,46.00
2019-05-14T04:44:44.269Z,46.00
2019-05-14T04:47:27.986Z,46.00
2019-05-14T04:49:50.503Z,46.00
2019-05-14T04:52:24.283Z,46.00
2019-05-14T04:54:59.461Z,46.00
2019-05-14T04:57:30.918Z,46.00
2019-05-14T05:00:02.372Z,46.00
2019-05-14T05:02:34.876Z,46.00
2019-05-14T05:05:09.087Z,46.00
2019-05-14T05:07:41.310Z,46.00
2019-05-14T05:10:12.827Z,46.10
2019-05-14T05:12:43.831Z,46.00
2019-05-14T05:15:15.619Z,46.20
2019-05-14T05:17:52.992Z,46.20
2019-05-14T05:20:29.207Z,46.10
2019-05-14T05:23:05.097Z,46.10
2019-05-14T05:25:38.550Z,46.10
2019-05-14T05:28:11.221Z,46.10
2019-05-14T05:30:44.747Z,46.10
2019-05-14T05:33:14.987Z,46.10
2019-05-14T05:35:51.383Z,46.10
2019-05-14T05:38:21.958Z,46.10
2019-05-14T05:40:56.669Z,46.10
2019-05-14T05:43:28.627Z,46.10
2019-05-14T05:46:05.066Z,46.10
2019-05-14T05:48:35.586Z,46.00
2019-05-14T05:51:09.274Z,46.10
2019-05-14T05:53:42.478Z,46.00
2019-05-14T05:56:18.658Z,46.10
2019-05-14T05:58:51.569Z,46.00
2019-05-14T06:01:39.463Z,46.10
2019-05-14T06:03:58.382Z,46.00
2019-05-14T06:06:32.191Z,46.00
2019-05-14T06:09:08.695Z,46.00
2019-05-14T06:11:41.374Z,46.10
2019-05-14T06:14:15.603Z,46.00
2019-05-14T06:16:48.822Z,46.00
2019-05-14T06:19:23.235Z,46.00
2019-05-14T06:21:59.697Z,46.00
2019-05-14T06:24:36.025Z,46.00
2019-05-14T06:27:10.175Z,46.00
2019-05-14T06:29:41.532Z,46.10
2019-05-14T06:32:13.581Z,46.00
2019-05-14T06:34:53.739Z,46.00
2019-05-14T06:37:24.455Z,46.00
2019-05-14T06:40:02.184Z,46.00
2019-05-14T06:42:33.266Z,46.00
2019-05-14T06:45:03.576Z,46.00
2019-05-14T06:47:34.253Z,46.00
2019-05-14T06:50:08.488Z,45.90
2019-05-14T06:52:42.791Z,46.20
2019-05-14T06:55:18.089Z,46.80
2019-05-14T06:57:49.459Z,47.10
2019-05-14T07:00:21.035Z,47.20
2019-05-14T07:02:52.482Z,47.40
2019-05-14T07:05:24.528Z,47.40
2019-05-14T07:07:54.879Z,47.10
2019-05-14T07:10:28.536Z,46.70
2019-05-14T07:12:59.224Z,47.20
2019-05-14T07:15:38.450Z,47.40
2019-05-14T07:18:11.078Z,47.30
2019-05-14T07:20:42.164Z,47.30
2019-05-14T07:23:14.234Z,47.40
2019-05-14T07:25:48.918Z,47.40
2019-05-14T07:28:19.465Z,47.40
2019-05-14T07:30:50.471Z,47.50
2019-05-14T07:33:20.726Z,47.40
2019-05-14T07:35:51.786Z,47.40
2019-05-14T07:38:22.110Z,47.20
2019-05-14T07:40:53.820Z,47.20
2019-05-14T07:43:24.147Z,47.20
2019-05-14T07:45:58.193Z,47.60
2019-05-14T07:48:30.449Z,47.40
2019-05-14T07:51:01.109Z,47.40
2019-05-14T07:53:38.764Z,47.10
2019-05-14T07:56:05.229Z,46.90
2019-05-14T07:58:39.149Z,47.10
2019-05-14T08:01:09.986Z,47.00
2019-05-14T08:03:41.288Z,47.00
2019-05-14T08:06:15.859Z,47.10
2019-05-14T08:08:49.315Z,47.10
2019-05-14T08:11:23.014Z,47.00
2019-05-14T08:13:53.929Z,47.00
2019-05-14T08:16:24.863Z,47.00
2019-05-14T08:19:00.153Z,47.00
2019-05-14T08:21:34.139Z,46.90
2019-05-14T08:24:08.686Z,46.80
2019-05-14T08:26:43.202Z,46.90
2019-05-14T08:29:14.683Z,47.00
2019-05-14T08:31:48.763Z,47.10
2019-05-14T08:34:28.352Z,47.00
2019-05-14T08:37:03.895Z,47.10
2019-05-14T08:39:38.860Z,47.00
2019-05-14T08:42:08.788Z,47.20
2019-05-14T08:44:39.672Z,47.20
2019-05-14T08:47:10.309Z,47.20
2019-05-14T08:49:46.326Z,47.80
2019-05-14T08:52:16.234Z,47.10
2019-05-14T08:55:05.642Z,47.10
2019-05-14T08:57:23.828Z,47.10
2019-05-14T09:00:00.308Z,47.00
2019-05-14T09:02:31.642Z,46.90
2019-05-14T09:05:04.274Z,46.70
2019-05-14T09:07:35.131Z,46.80
2019-05-14T09:10:08.481Z,46.80
2019-05-14T09:12:38.944Z,46.80
2019-05-14T09:15:11.576Z,46.60
2019-05-14T09:17:43.035Z,46.50
2019-05-14T09:20:19.768Z,46.50
2019-05-14T09:22:50.275Z,46.40
2019-05-14T09:25:20.889Z,46.30
2019-05-14T09:27:58.618Z,46.20
2019-05-14T09:30:29.117Z,46.00
2019-05-14T09:33:03.053Z,45.70
2019-05-14T09:35:34.682Z,45.50
2019-05-14T09:38:05.752Z,45.20
2019-05-14T09:40:45.385Z,45.00
2019-05-14T09:43:18.130Z,45.00
2019-05-14T09:45:48.302Z,44.80
2019-05-14T09:48:23.191Z,44.70
2019-05-14T09:50:55.751Z,44.50
2019-05-14T09:53:28.983Z,44.40
2019-05-14T09:56:02.069Z,44.30
2019-05-14T09:58:40.074Z,44.20
2019-05-14T10:01:10.384Z,44.10
2019-05-14T10:03:44.039Z,44.00
2019-05-14T10:06:14.340Z,43.90
2019-05-14T10:08:45.248Z,43.80
2019-05-14T10:11:15.576Z,43.80
2019-05-14T10:13:49.042Z,43.70
2019-05-14T10:16:20.956Z,44.30
2019-05-14T10:19:01.024Z,43.50
2019-05-14T10:21:32.517Z,43.60
2019-05-14T10:24:04.418Z,43.50
2019-05-14T10:26:39.444Z,43.50
2019-05-14T10:29:10.399Z,43.40
2019-05-14T10:31:42.608Z,43.40
2019-05-14T10:34:19.385Z,43.40
2019-05-14T10:36:51.699Z,43.30
2019-05-14T10:39:25.508Z,43.40
2019-05-14T10:41:56.418Z,43.40
2019-05-14T10:44:29.245Z,42.30
2019-05-14T10:47:03.925Z,42.90
2019-05-14T10:49:38.490Z,43.60
2019-05-14T10:52:14.583Z,44.30
2019-05-14T10:54:55.310Z,44.60
2019-05-14T10:57:21.659Z,45.20
2019-05-14T10:59:59.196Z,45.70
2019-05-14T11:02:33.965Z,45.90
2019-05-14T11:05:07.810Z,46.20
2019-05-14T11:07:41.764Z,46.60
2019-05-14T11:10:11.569Z,46.70
2019-05-14T11:12:44.688Z,47.00
2019-05-14T11:15:18.900Z,47.00
2019-05-14T11:17:51.502Z,47.20
2019-05-14T11:20:22.746Z,47.20
2019-05-14T11:22:58.433Z,47.30
2019-05-14T11:25:29.937Z,47.20
2019-05-14T11:28:02.242Z,47.30
2019-05-14T11:30:39.089Z,47.40
2019-05-14T11:33:09.678Z,47.60
2019-05-14T11:35:43.365Z,47.70
2019-05-14T11:38:28.505Z,47.70
2019-05-14T11:40:49.538Z,47.70
2019-05-14T11:43:24.211Z,47.70
2019-05-14T11:45:59.456Z,47.70
2019-05-14T11:48:34.391Z,48.20
2019-05-14T11:51:05.101Z,48.30
2019-05-14T11:53:35.418Z,48.00
2019-05-14T11:56:08.702Z,47.80
2019-05-14T11:58:38.299Z,47.40
2019-05-14T12:01:09.410Z,47.00
2019-05-14T12:03:43.790Z,46.60
2019-05-14T12:06:14.659Z,46.30
2019-05-14T12:08:45.983Z,46.00
2019-05-14T12:11:19.409Z,45.60
2019-05-14T12:13:50.372Z,45.40
2019-05-14T12:16:23.539Z,45.20
2019-05-14T12:18:58.862Z,45.00
2019-05-14T12:21:30.087Z,44.90
2019-05-14T12:24:05.296Z,44.60
2019-05-14T12:26:38.572Z,44.50
2019-05-14T12:29:09.846Z,44.40
2019-05-14T12:31:40.727Z,44.30
2019-05-14T12:34:11.469Z,44.20
2019-05-14T12:36:50.196Z,44.10
2019-05-14T12:39:21.119Z,44.00
2019-05-14T12:41:52.007Z,43.90
2019-05-14T12:44:30.651Z,43.80
2019-05-14T12:47:01.219Z,43.70
2019-05-14T12:49:33.899Z,44.00
2019-05-14T12:52:17.999Z,44.20
2019-05-14T12:54:39.077Z,44.00
2019-05-14T12:57:09.798Z,44.10
2019-05-14T12:59:40.827Z,44.60
2019-05-14T13:02:11.575Z,44.70
2019-05-14T13:04:42.798Z,44.80
2019-05-14T13:07:19.379Z,45.00
2019-05-14T13:09:51.593Z,45.10
2019-05-14T13:12:24.202Z,45.30
2019-05-14T13:14:55.055Z,45.50
2019-05-14T13:17:28.142Z,45.50
2019-05-14T13:19:59.404Z,45.70
2019-05-14T13:22:42.443Z,45.80
2019-05-14T13:25:04.769Z,45.90
2019-05-14T13:27:39.387Z,45.90
2019-05-14T13:30:11.126Z,46.00
2019-05-14T13:32:42.173Z,46.10
2019-05-14T13:35:14.107Z,46.10
2019-05-14T13:37:49.110Z,46.10
2019-05-14T13:40:23.590Z,46.20
2019-05-14T13:42:54.523Z,46.50
2019-05-14T13:45:30.432Z,46.40
2019-05-14T13:48:03.263Z,46.70
2019-05-14T13:50:40.703Z,46.70
2019-05-14T13:53:13.460Z,47.30
2019-05-14T13:55:56.550Z,46.80
2019-05-14T13:58:24.874Z,46.20
2019-05-14T14:00:58.828Z,45.70
2019-05-14T14:03:29.377Z,46.40
2019-05-14T14:06:01.575Z,46.90
2019-05-14T14:08:34.723Z,46.90
2019-05-14T14:11:12.317Z,46.80
2019-05-14T14:13:39.164Z,46.60
2019-05-14T14:16:14.477Z,46.50
2019-05-14T14:18:43.318Z,46.20
2019-05-14T14:21:14.567Z,46.10
2019-05-14T14:23:49.106Z,45.80
2019-05-14T14:26:21.481Z,45.50
2019-05-14T14:28:54.642Z,45.40
2019-05-14T14:31:30.017Z,45.10
2019-05-14T14:34:01.339Z,44.90
2019-05-14T14:36:32.800Z,44.70
2019-05-14T14:39:09.480Z,44.50
2019-05-14T14:41:45.275Z,44.40
2019-05-14T14:44:19.170Z,44.30
2019-05-14T14:46:49.955Z,44.10
2019-05-14T14:49:20.658Z,44.00
2019-05-14T14:51:51.616Z,43.80
2019-05-14T14:54:24.086Z,43.70
2019-05-14T14:56:55.548Z,43.60
2019-05-14T14:59:30.556Z,43.50
2019-05-14T15:02:01.832Z,43.50
2019-05-14T15:04:35.156Z,43.50
2019-05-14T15:07:09.912Z,43.50
2019-05-14T15:09:40.791Z,43.60
2019-05-14T15:12:11.579Z,43.50
2019-05-14T15:14:44.127Z,43.50
2019-05-14T15:17:18.587Z,43.40
2019-05-14T15:19:51.025Z,43.40
2019-05-14T15:22:21.798Z,43.20
2019-05-14T15:24:58.393Z,43.10
2019-05-14T15:27:28.428Z,43.00
2019-05-14T15:29:59.447Z,42.90
2019-05-14T15:32:33.064Z,42.80
2019-05-14T15:35:10.208Z,42.70
2019-05-14T15:37:42.243Z,42.90
2019-05-14T15:40:14.251Z,43.00
2019-05-14T15:42:46.236Z,43.00
2019-05-14T15:45:18.028Z,43.00
2019-05-14T15:47:49.142Z,42.90
2019-05-14T15:50:20.311Z,42.90
2019-05-14T15:52:59.309Z,43.00
2019-05-14T15:55:30.558Z,43.00
2019-05-14T15:58:01.748Z,42.90
2019-05-14T16:00:33.172Z,42.90
2019-05-14T16:03:03.997Z,42.80
2019-05-14T16:05:39.197Z,42.70
2019-05-14T16:08:11.834Z,42.70
2019-05-14T16:10:43.270Z,42.80
2019-05-14T16:13:14.748Z,42.70
2019-05-14T16:15:48.404Z,42.80
2019-05-14T16:18:21.703Z,42.70
2019-05-14T16:20:51.223Z,42.70
2019-05-14T16:23:22.294Z,42.70
2019-05-14T16:25:53.051Z,42.60
2019-05-14T16:28:23.880Z,42.60
2019-05-14T16:30:55.482Z,42.50
2019-05-14T16:33:29.324Z,42.50
2019-05-14T16:36:03.455Z,42.50
2019-05-14T16:38:34.453Z,42.50
2019-05-14T16:41:06.151Z,42.40
2019-05-14T16:43:43.498Z,42.40
2019-05-14T16:46:19.727Z,42.40
2019-05-14T16:48:50.995Z,42.30
2019-05-14T16:51:21.322Z,42.30
2019-05-14T16:53:52.055Z,42.40
2019-05-14T16:56:22.481Z,42.40
2019-05-14T16:58:58.336Z,42.30
2019-05-14T17:01:33.756Z,42.40
2019-05-14T17:04:05.236Z,42.40
2019-05-14T17:06:39.458Z,42.30
2019-05-14T17:09:14.572Z,41.60
2019-05-14T17:11:48.079Z,42.30
2019-05-14T17:14:20.158Z,42.40
2019-05-14T17:16:51.298Z,42.30
2019-05-14T17:19:22.618Z,42.30
2019-05-14T17:21:59.254Z,42.20
2019-05-14T17:24:29.231Z,42.30
2019-05-14T17:27:00.708Z,42.40
2019-05-14T17:29:31.504Z,42.60
2019-05-14T17:32:05.408Z,42.80
2019-05-14T17:34:38.581Z,42.90
2019-05-14T17:37:09.837Z,43.20
2019-05-14T17:39:40.554Z,43.30
2019-05-14T17:42:11.681Z,43.50
2019-05-14T17:44:44.036Z,43.60
2019-05-14T17:47:18.635Z,43.80
2019-05-14T17:49:49.343Z,43.80
2019-05-14T17:52:29.828Z,44.00
2019-05-14T17:54:59.311Z,44.00
2019-05-14T17:57:34.450Z,44.40
2019-05-14T18:00:09.057Z,45.00
2019-05-14T18:02:38.935Z,45.30
2019-05-14T18:05:09.923Z,45.40
2019-05-14T18:07:41.314Z,45.50
2019-05-14T18:10:12.450Z,45.40
2019-05-14T18:12:43.639Z,45.60
2019-05-14T18:15:14.730Z,45.60
2019-05-14T18:17:45.864Z,45.70
2019-05-14T18:20:17.072Z,45.70
2019-05-14T18:22:48.788Z,45.70
2019-05-14T18:25:22.374Z,45.70
2019-05-14T18:27:53.847Z,45.80
2019-05-14T18:30:24.145Z,45.80
2019-05-14T18:32:54.895Z,45.80
2019-05-14T18:35:25.282Z,45.80
2019-05-14T18:37:56.551Z,45.70
2019-05-14T18:40:28.112Z,45.90
2019-05-14T18:42:59.366Z,45.80
2019-05-14T18:45:30.288Z,45.90
2019-05-14T18:48:03.124Z,45.90
2019-05-14T18:50:33.806Z,45.90
2019-05-14T18:53:12.499Z,45.90
2019-05-14T18:55:49.195Z,46.00
2019-05-14T18:58:21.815Z,46.00
2019-05-14T19:00:52.378Z,46.00
2019-05-14T19:03:23.349Z,45.90
2019-05-14T19:05:53.669Z,46.10
2019-05-14T19:08:28.627Z,46.10
2019-05-14T19:11:04.857Z,46.00
2019-05-14T19:13:39.000Z,46.00
2019-05-14T19:16:09.582Z,46.00
2019-05-14T19:18:40.347Z,46.00
2019-05-14T19:21:11.158Z,46.00
2019-05-14T19:23:45.133Z,46.10
2019-05-14T19:26:33.082Z,46.00
2019-05-14T19:28:52.489Z,46.00
2019-05-14T19:31:24.517Z,46.00
2019-05-14T19:34:02.268Z,46.00
2019-05-14T19:36:33.173Z,46.00
2019-05-14T19:39:07.763Z,46.00
2019-05-14T19:41:43.322Z,46.10
2019-05-14T19:44:19.079Z,46.10
2019-05-14T19:46:49.957Z,46.10
2019-05-14T19:49:21.697Z,46.10
2019-05-14T19:51:55.209Z,46.10
2019-05-14T19:54:29.213Z,46.00
2019-05-14T19:57:00.843Z,45.90
2019-05-14T19:59:31.939Z,45.80
2019-05-14T20:02:03.140Z,45.90
2019-05-14T20:04:34.510Z,45.90
2019-05-14T20:07:08.773Z,45.80
2019-05-14T20:09:39.732Z,45.90
2019-05-14T20:12:11.327Z,45.80
2019-05-14T20:14:42.628Z,45.80
2019-05-14T20:17:13.648Z,45.80
2019-05-14T20:19:47.216Z,45.80
2019-05-14T20:22:19.064Z,45.70
2019-05-14T20:24:50.441Z,45.70
2019-05-14T20:27:23.427Z,45.70
2019-05-14T20:29:58.107Z,45.70
2019-05-14T20:32:31.597Z,45.60
2019-05-14T20:35:03.894Z,45.70
2019-05-14T20:37:38.723Z,46.30
2019-05-14T20:40:11.139Z,45.70
2019-05-14T20:42:42.819Z,45.70
2019-05-14T20:45:13.705Z,45.70
2019-05-14T20:47:48.117Z,45.70
2019-05-14T20:50:19.069Z,45.70
2019-05-14T20:52:51.464Z,45.70
2019-05-14T20:55:28.655Z,45.70
2019-05-14T20:58:02.782Z,45.60
2019-05-14T21:00:33.598Z,45.70
2019-05-14T21:03:04.679Z,45.70
2019-05-14T21:05:42.316Z,45.70
2019-05-14T21:08:13.539Z,45.80
2019-05-14T21:10:42.690Z,45.70
2019-05-14T21:13:14.734Z,45.80
2019-05-14T21:15:48.300Z,45.70
2019-05-14T21:18:34.420Z,45.80
2019-05-14T21:21:00.095Z,45.80
2019-05-14T21:23:30.732Z,45.80
2019-05-14T21:26:08.405Z,45.80
2019-05-14T21:28:39.464Z,45.80
2019-05-14T21:31:13.204Z,45.80
2019-05-14T21:33:44.943Z,45.80
2019-05-14T21:36:19.420Z,45.80
2019-05-14T21:38:49.770Z,45.80
2019-05-14T21:41:25.926Z,45.90
2019-05-14T21:44:01.346Z,45.80
2019-05-14T21:46:33.923Z,45.80
2019-05-14T21:49:04.850Z,45.90
2019-05-14T21:51:36.045Z,45.90
2019-05-14T21:54:09.299Z,45.80
2019-05-14T21:56:40.061Z,45.80
2019-05-14T21:59:11.255Z,45.90
2019-05-14T22:01:44.865Z,45.90
2019-05-14T22:04:18.674Z,45.90
2019-05-14T22:06:49.917Z,45.90
2019-05-14T22:09:21.061Z,46.00
2019-05-14T22:11:52.502Z,46.00
2019-05-14T22:14:23.526Z,46.00
2019-05-14T22:16:54.487Z,46.60
2019-05-14T22:19:28.913Z,46.70
2019-05-14T22:22:07.867Z,46.00
2019-05-14T22:24:40.616Z,46.10
2019-05-14T22:27:12.254Z,46.10
2019-05-14T22:29:45.253Z,46.10
2019-05-14T22:32:18.926Z,46.10
2019-05-14T22:34:49.907Z,46.00
2019-05-14T22:37:28.062Z,46.20
2019-05-14T22:39:59.104Z,46.10
2019-05-14T22:42:30.383Z,46.10
2019-05-14T22:45:04.307Z,46.10
2019-05-14T22:47:39.764Z,46.10
2019-05-14T22:50:08.991Z,46.20
2019-05-14T22:52:42.337Z,46.30
2019-05-14T22:55:14.403Z,46.20
2019-05-14T22:57:48.928Z,46.20
2019-05-14T23:00:22.843Z,46.20
2019-05-14T23:02:54.381Z,46.30
2019-05-14T23:05:25.735Z,46.30
2019-05-14T23:08:00.179Z,46.20
2019-05-14T23:10:35.573Z,46.20
2019-05-14T23:13:09.543Z,46.20
2019-05-14T23:15:42.914Z,46.50
2019-05-14T23:18:15.226Z,46.80
2019-05-14T23:20:49.226Z,46.80
2019-05-14T23:23:19.078Z,46.60
2019-05-14T23:25:52.610Z,46.60
2019-05-14T23:28:39.490Z,46.60
2019-05-14T23:31:02.573Z,46.60
2019-05-14T23:33:32.870Z,46.60
2019-05-14T23:36:03.928Z,46.60
2019-05-14T23:38:38.540Z,46.60
2019-05-14T23:41:11.746Z,46.60
2019-05-14T23:43:42.269Z,46.60
2019-05-14T23:46:14.953Z,46.60
2019-05-14T23:48:48.314Z,46.60
2019-05-14T23:51:20.402Z,46.60
2019-05-14T23:53:52.703Z,46.60
2019-05-14T23:56:28.871Z,47.20
2019-05-14T23:59:09.242Z,46.60
